sensor_id;sensor_type;location;lat;lon;timestamp;pressure;altitude;pressure_sealevel;temperature
60966;BMP180;46834;51.100;6.886;2023-01-15T00:01:32;99589.00;;;12.80
60966;BMP180;46834;51.100;6.886;2023-01-15T00:04:05;99603.00;;;12.80
60966;BMP180;46834;51.100;6.886;2023-01-15T00:06:35;99585.00;;;12.70
60966;BMP180;46834;51.100;6.886;2023-01-15T00:09:01;99590.00;;;12.70
60966;BMP180;46834;51.100;6.886;2023-01-15T00:11:27;99601.00;;;12.70
60966;BMP180;46834;51.100;6.886;2023-01-15T00:13:54;99599.00;;;12.70
60966;BMP180;46834;51.100;6.886;2023-01-15T00:16:24;99599.00;;;12.70
60966;BMP180;46834;51.100;6.886;2023-01-15T00:18:56;99614.00;;;12.60
60966;BMP180;46834;51.100;6.886;2023-01-15T00:21:24;99612.00;;;12.60
60966;BMP180;46834;51.100;6.886;2023-01-15T00:23:51;99618.00;;;12.60
60966;BMP180;46834;51.100;6.886;2023-01-15T00:26:36;99629.00;;;12.50
60966;BMP180;46834;51.100;6.886;2023-01-15T00:29:22;99620.00;;;12.50
60966;BMP180;46834;51.100;6.886;2023-01-15T00:34:22;99627.00;;;12.50
60966;BMP180;46834;51.100;6.886;2023-01-15T00:36:48;99612.00;;;12.40
60966;BMP180;46834;51.100;6.886;2023-01-15T00:39:14;99641.00;;;12.40
60966;BMP180;46834;51.100;6.886;2023-01-15T00:41:39;99628.00;;;12.40
60966;BMP180;46834;51.100;6.886;2023-01-15T00:44:05;99639.00;;;12.40
60966;BMP180;46834;51.100;6.886;2023-01-15T00:46:31;99636.00;;;12.30
60966;BMP180;46834;51.100;6.886;2023-01-15T00:48:56;99629.00;;;12.30
60966;BMP180;46834;51.100;6.886;2023-01-15T00:51:22;99620.00;;;12.30
60966;BMP180;46834;51.100;6.886;2023-01-15T00:53:48;99618.00;;;12.30
60966;BMP180;46834;51.100;6.886;2023-01-15T00:56:13;99619.00;;;12.30
60966;BMP180;46834;51.100;6.886;2023-01-15T00:58:39;99611.00;;;12.30
60966;BMP180;46834;51.100;6.886;2023-01-15T01:01:05;99622.00;;;12.30
60966;BMP180;46834;51.100;6.886;2023-01-15T01:03:30;99623.00;;;12.30
60966;BMP180;46834;51.100;6.886;2023-01-15T01:06:03;99608.00;;;12.20
60966;BMP180;46834;51.100;6.886;2023-01-15T01:08:30;99589.00;;;12.20
60966;BMP180;46834;51.100;6.886;2023-01-15T01:11:08;99585.00;;;12.20
60966;BMP180;46834;51.100;6.886;2023-01-15T01:13:37;99584.00;;;12.20
60966;BMP180;46834;51.100;6.886;2023-01-15T01:18:45;99594.00;;;12.10
60966;BMP180;46834;51.100;6.886;2023-01-15T01:21:10;99581.00;;;12.10
60966;BMP180;46834;51.100;6.886;2023-01-15T01:23:36;99600.00;;;12.10
60966;BMP180;46834;51.100;6.886;2023-01-15T01:26:02;99581.00;;;12.00
60966;BMP180;46834;51.100;6.886;2023-01-15T01:28:27;99588.00;;;12.00
60966;BMP180;46834;51.100;6.886;2023-01-15T01:30:53;99589.00;;;11.90
60966;BMP180;46834;51.100;6.886;2023-01-15T01:33:18;99596.00;;;11.90
60966;BMP180;46834;51.100;6.886;2023-01-15T01:35:48;99613.00;;;11.90
60966;BMP180;46834;51.100;6.886;2023-01-15T01:38:15;99613.00;;;11.90
60966;BMP180;46834;51.100;6.886;2023-01-15T01:40:41;99601.00;;;11.90
60966;BMP180;46834;51.100;6.886;2023-01-15T01:43:20;99617.00;;;11.80
60966;BMP180;46834;51.100;6.886;2023-01-15T01:45:46;99625.00;;;11.90
60966;BMP180;46834;51.100;6.886;2023-01-15T01:48:13;99620.00;;;11.90
60966;BMP180;46834;51.100;6.886;2023-01-15T01:50:41;99616.00;;;11.90
60966;BMP180;46834;51.100;6.886;2023-01-15T01:53:36;99614.00;;;11.80
60966;BMP180;46834;51.100;6.886;2023-01-15T01:56:03;99619.00;;;11.80
60966;BMP180;46834;51.100;6.886;2023-01-15T01:58:31;99613.00;;;11.80
60966;BMP180;46834;51.100;6.886;2023-01-15T02:00:59;99611.00;;;11.80
60966;BMP180;46834;51.100;6.886;2023-01-15T02:03:36;99624.00;;;11.80
60966;BMP180;46834;51.100;6.886;2023-01-15T02:06:07;99639.00;;;11.80
60966;BMP180;46834;51.100;6.886;2023-01-15T02:08:34;99628.00;;;11.80
60966;BMP180;46834;51.100;6.886;2023-01-15T02:11:04;99612.00;;;11.80
60966;BMP180;46834;51.100;6.886;2023-01-15T02:13:39;99598.00;;;11.80
60966;BMP180;46834;51.100;6.886;2023-01-15T02:19:34;99614.00;;;11.70
60966;BMP180;46834;51.100;6.886;2023-01-15T02:22:24;99606.00;;;11.60
60966;BMP180;46834;51.100;6.886;2023-01-15T02:25:41;99609.00;;;11.60
60966;BMP180;46834;51.100;6.886;2023-01-15T02:28:23;99610.00;;;11.60
60966;BMP180;46834;51.100;6.886;2023-01-15T02:30:58;99596.00;;;11.60
60966;BMP180;46834;51.100;6.886;2023-01-15T02:33:46;99589.00;;;11.60
60966;BMP180;46834;51.100;6.886;2023-01-15T02:36:17;99586.00;;;11.60
60966;BMP180;46834;51.100;6.886;2023-01-15T02:38:48;99587.00;;;11.60
60966;BMP180;46834;51.100;6.886;2023-01-15T02:41:17;99574.00;;;11.60
60966;BMP180;46834;51.100;6.886;2023-01-15T02:43:51;99585.00;;;11.60
60966;BMP180;46834;51.100;6.886;2023-01-15T02:46:23;99583.00;;;11.60
60966;BMP180;46834;51.100;6.886;2023-01-15T02:48:53;99591.00;;;11.60
60966;BMP180;46834;51.100;6.886;2023-01-15T02:51:27;99574.00;;;11.50
60966;BMP180;46834;51.100;6.886;2023-01-15T02:54:00;99589.00;;;11.50
60966;BMP180;46834;51.100;6.886;2023-01-15T02:56:31;99594.00;;;11.50
60966;BMP180;46834;51.100;6.886;2023-01-15T02:59:07;99600.00;;;11.50
60966;BMP180;46834;51.100;6.886;2023-01-15T03:01:42;99591.00;;;11.50
60966;BMP180;46834;51.100;6.886;2023-01-15T03:04:18;99588.00;;;11.50
60966;BMP180;46834;51.100;6.886;2023-01-15T03:07:05;99584.00;;;11.40
60966;BMP180;46834;51.100;6.886;2023-01-15T03:09:33;99588.00;;;11.40
60966;BMP180;46834;51.100;6.886;2023-01-15T03:12:23;99586.00;;;11.40
60966;BMP180;46834;51.100;6.886;2023-01-15T03:15:15;99588.00;;;11.40
60966;BMP180;46834;51.100;6.886;2023-01-15T03:18:07;99594.00;;;11.40
60966;BMP180;46834;51.100;6.886;2023-01-15T03:20:41;99573.00;;;11.40
60966;BMP180;46834;51.100;6.886;2023-01-15T03:23:12;99553.00;;;11.40
60966;BMP180;46834;51.100;6.886;2023-01-15T03:25:46;99546.00;;;11.40
60966;BMP180;46834;51.100;6.886;2023-01-15T03:28:17;99541.00;;;11.40
60966;BMP180;46834;51.100;6.886;2023-01-15T03:30:44;99550.00;;;11.40
60966;BMP180;46834;51.100;6.886;2023-01-15T03:33:10;99545.00;;;11.40
60966;BMP180;46834;51.100;6.886;2023-01-15T03:35:57;99548.00;;;11.30
60966;BMP180;46834;51.100;6.886;2023-01-15T03:38:38;99546.00;;;11.30
60966;BMP180;46834;51.100;6.886;2023-01-15T03:44:33;99549.00;;;11.30
60966;BMP180;46834;51.100;6.886;2023-01-15T03:47:25;99536.00;;;11.30
60966;BMP180;46834;51.100;6.886;2023-01-15T03:50:47;99560.00;;;11.30
60966;BMP180;46834;51.100;6.886;2023-01-15T03:53:40;99551.00;;;11.30
60966;BMP180;46834;51.100;6.886;2023-01-15T03:56:55;99532.00;;;11.20
60966;BMP180;46834;51.100;6.886;2023-01-15T03:59:38;99537.00;;;11.30
60966;BMP180;46834;51.100;6.886;2023-01-15T04:02:12;99537.00;;;11.30
60966;BMP180;46834;51.100;6.886;2023-01-15T04:04:39;99552.00;;;11.30
60966;BMP180;46834;51.100;6.886;2023-01-15T04:07:05;99557.00;;;11.30
60966;BMP180;46834;51.100;6.886;2023-01-15T04:09:36;99552.00;;;11.30
60966;BMP180;46834;51.100;6.886;2023-01-15T04:12:03;99544.00;;;11.30
60966;BMP180;46834;51.100;6.886;2023-01-15T04:14:30;99548.00;;;11.30
60966;BMP180;46834;51.100;6.886;2023-01-15T04:16:56;99551.00;;;11.30
60966;BMP180;46834;51.100;6.886;2023-01-15T04:19:21;99560.00;;;11.30
60966;BMP180;46834;51.100;6.886;2023-01-15T04:21:47;99546.00;;;11.30
60966;BMP180;46834;51.100;6.886;2023-01-15T04:24:13;99549.00;;;11.30
60966;BMP180;46834;51.100;6.886;2023-01-15T04:26:38;99543.00;;;11.30
60966;BMP180;46834;51.100;6.886;2023-01-15T04:29:04;99541.00;;;11.30
60966;BMP180;46834;51.100;6.886;2023-01-15T04:31:30;99551.00;;;11.30
60966;BMP180;46834;51.100;6.886;2023-01-15T04:33:58;99565.00;;;11.30
60966;BMP180;46834;51.100;6.886;2023-01-15T04:36:24;99567.00;;;11.30
60966;BMP180;46834;51.100;6.886;2023-01-15T04:38:50;99550.00;;;11.30
60966;BMP180;46834;51.100;6.886;2023-01-15T04:41:15;99565.00;;;11.30
60966;BMP180;46834;51.100;6.886;2023-01-15T04:43:59;99550.00;;;11.30
60966;BMP180;46834;51.100;6.886;2023-01-15T04:46:34;99550.00;;;11.30
60966;BMP180;46834;51.100;6.886;2023-01-15T04:49:00;99535.00;;;11.30
60966;BMP180;46834;51.100;6.886;2023-01-15T04:51:25;99538.00;;;11.30
60966;BMP180;46834;51.100;6.886;2023-01-15T04:53:51;99551.00;;;11.30
60966;BMP180;46834;51.100;6.886;2023-01-15T04:56:18;99553.00;;;11.30
60966;BMP180;46834;51.100;6.886;2023-01-15T04:58:44;99552.00;;;11.30
60966;BMP180;46834;51.100;6.886;2023-01-15T05:01:12;99562.00;;;11.30
60966;BMP180;46834;51.100;6.886;2023-01-15T05:03:38;99551.00;;;11.20
60966;BMP180;46834;51.100;6.886;2023-01-15T05:06:03;99552.00;;;11.30
60966;BMP180;46834;51.100;6.886;2023-01-15T05:08:30;99544.00;;;11.20
60966;BMP180;46834;51.100;6.886;2023-01-15T05:10:55;99542.00;;;11.30
60966;BMP180;46834;51.100;6.886;2023-01-15T05:13:25;99561.00;;;11.20
60966;BMP180;46834;51.100;6.886;2023-01-15T05:15:50;99552.00;;;11.20
60966;BMP180;46834;51.100;6.886;2023-01-15T05:18:16;99550.00;;;11.20
60966;BMP180;46834;51.100;6.886;2023-01-15T05:20:42;99556.00;;;11.20
60966;BMP180;46834;51.100;6.886;2023-01-15T05:23:08;99554.00;;;11.20
60966;BMP180;46834;51.100;6.886;2023-01-15T05:25:36;99557.00;;;11.20
60966;BMP180;46834;51.100;6.886;2023-01-15T05:28:02;99562.00;;;11.20
60966;BMP180;46834;51.100;6.886;2023-01-15T05:30:28;99555.00;;;11.10
60966;BMP180;46834;51.100;6.886;2023-01-15T05:32:54;99546.00;;;11.10
60966;BMP180;46834;51.100;6.886;2023-01-15T05:35:19;99560.00;;;11.10
60966;BMP180;46834;51.100;6.886;2023-01-15T05:37:45;99552.00;;;11.10
60966;BMP180;46834;51.100;6.886;2023-01-15T05:40:12;99546.00;;;11.20
60966;BMP180;46834;51.100;6.886;2023-01-15T05:42:37;99565.00;;;11.20
60966;BMP180;46834;51.100;6.886;2023-01-15T05:45:03;99543.00;;;11.10
60966;BMP180;46834;51.100;6.886;2023-01-15T05:47:29;99547.00;;;11.20
60966;BMP180;46834;51.100;6.886;2023-01-15T05:49:55;99557.00;;;11.10
60966;BMP180;46834;51.100;6.886;2023-01-15T05:52:20;99563.00;;;11.10
60966;BMP180;46834;51.100;6.886;2023-01-15T05:54:48;99550.00;;;11.10
60966;BMP180;46834;51.100;6.886;2023-01-15T05:57:14;99567.00;;;11.10
60966;BMP180;46834;51.100;6.886;2023-01-15T05:59:40;99568.00;;;11.10
60966;BMP180;46834;51.100;6.886;2023-01-15T06:02:05;99573.00;;;11.10
60966;BMP180;46834;51.100;6.886;2023-01-15T06:04:31;99569.00;;;11.10
60966;BMP180;46834;51.100;6.886;2023-01-15T06:06:57;99570.00;;;11.10
60966;BMP180;46834;51.100;6.886;2023-01-15T06:09:25;99561.00;;;11.10
60966;BMP180;46834;51.100;6.886;2023-01-15T06:11:52;99572.00;;;11.10
60966;BMP180;46834;51.100;6.886;2023-01-15T06:14:18;99584.00;;;11.10
60966;BMP180;46834;51.100;6.886;2023-01-15T06:16:45;99573.00;;;11.10
60966;BMP180;46834;51.100;6.886;2023-01-15T06:19:12;99598.00;;;11.10
60966;BMP180;46834;51.100;6.886;2023-01-15T06:21:38;99597.00;;;11.10
60966;BMP180;46834;51.100;6.886;2023-01-15T06:24:05;99580.00;;;11.00
60966;BMP180;46834;51.100;6.886;2023-01-15T06:26:31;99591.00;;;11.10
60966;BMP180;46834;51.100;6.886;2023-01-15T06:28:56;99583.00;;;11.10
60966;BMP180;46834;51.100;6.886;2023-01-15T06:31:23;99597.00;;;11.00
60966;BMP180;46834;51.100;6.886;2023-01-15T06:33:51;99589.00;;;11.00
60966;BMP180;46834;51.100;6.886;2023-01-15T06:36:21;99601.00;;;11.00
60966;BMP180;46834;51.100;6.886;2023-01-15T06:38:48;99590.00;;;11.00
60966;BMP180;46834;51.100;6.886;2023-01-15T06:41:18;99607.00;;;11.00
60966;BMP180;46834;51.100;6.886;2023-01-15T06:44:03;99612.00;;;11.00
60966;BMP180;46834;51.100;6.886;2023-01-15T06:46:49;99604.00;;;11.00
60966;BMP180;46834;51.100;6.886;2023-01-15T06:49:35;99609.00;;;11.00
60966;BMP180;46834;51.100;6.886;2023-01-15T06:52:02;99608.00;;;11.00
60966;BMP180;46834;51.100;6.886;2023-01-15T06:54:28;99595.00;;;11.00
60966;BMP180;46834;51.100;6.886;2023-01-15T06:56:54;99603.00;;;11.00
60966;BMP180;46834;51.100;6.886;2023-01-15T06:59:23;99597.00;;;11.00
60966;BMP180;46834;51.100;6.886;2023-01-15T07:01:49;99585.00;;;11.00
60966;BMP180;46834;51.100;6.886;2023-01-15T07:04:15;99607.00;;;11.00
60966;BMP180;46834;51.100;6.886;2023-01-15T07:06:40;99608.00;;;11.00
60966;BMP180;46834;51.100;6.886;2023-01-15T07:09:06;99599.00;;;10.90
60966;BMP180;46834;51.100;6.886;2023-01-15T07:11:32;99593.00;;;10.90
60966;BMP180;46834;51.100;6.886;2023-01-15T07:13:58;99622.00;;;10.90
60966;BMP180;46834;51.100;6.886;2023-01-15T07:16:36;99595.00;;;10.90
60966;BMP180;46834;51.100;6.886;2023-01-15T07:19:03;99611.00;;;10.90
60966;BMP180;46834;51.100;6.886;2023-01-15T07:21:29;99631.00;;;10.90
60966;BMP180;46834;51.100;6.886;2023-01-15T07:23:59;99615.00;;;10.90
60966;BMP180;46834;51.100;6.886;2023-01-15T07:26:25;99615.00;;;10.90
60966;BMP180;46834;51.100;6.886;2023-01-15T07:28:51;99611.00;;;10.90
60966;BMP180;46834;51.100;6.886;2023-01-15T07:31:16;99620.00;;;10.90
60966;BMP180;46834;51.100;6.886;2023-01-15T07:33:42;99615.00;;;10.90
60966;BMP180;46834;51.100;6.886;2023-01-15T07:36:08;99637.00;;;10.90
60966;BMP180;46834;51.100;6.886;2023-01-15T07:38:33;99636.00;;;10.90
60966;BMP180;46834;51.100;6.886;2023-01-15T07:41:00;99641.00;;;10.90
60966;BMP180;46834;51.100;6.886;2023-01-15T07:43:44;99639.00;;;10.90
60966;BMP180;46834;51.100;6.886;2023-01-15T07:46:29;99646.00;;;10.90
60966;BMP180;46834;51.100;6.886;2023-01-15T07:49:14;99638.00;;;10.90
60966;BMP180;46834;51.100;6.886;2023-01-15T07:51:58;99659.00;;;10.80
60966;BMP180;46834;51.100;6.886;2023-01-15T07:54:24;99653.00;;;10.80
60966;BMP180;46834;51.100;6.886;2023-01-15T07:56:52;99659.00;;;10.80
60966;BMP180;46834;51.100;6.886;2023-01-15T07:59:18;99649.00;;;10.80
60966;BMP180;46834;51.100;6.886;2023-01-15T08:01:45;99655.00;;;10.80
60966;BMP180;46834;51.100;6.886;2023-01-15T08:04:11;99651.00;;;10.80
60966;BMP180;46834;51.100;6.886;2023-01-15T08:06:36;99647.00;;;10.80
60966;BMP180;46834;51.100;6.886;2023-01-15T08:09:03;99660.00;;;10.80
60966;BMP180;46834;51.100;6.886;2023-01-15T08:11:29;99656.00;;;10.80
60966;BMP180;46834;51.100;6.886;2023-01-15T08:14:15;99680.00;;;10.80
60966;BMP180;46834;51.100;6.886;2023-01-15T08:16:59;99686.00;;;10.80
60966;BMP180;46834;51.100;6.886;2023-01-15T08:19:25;99677.00;;;10.70
60966;BMP180;46834;51.100;6.886;2023-01-15T08:21:57;99684.00;;;10.70
60966;BMP180;46834;51.100;6.886;2023-01-15T08:24:23;99675.00;;;10.80
60966;BMP180;46834;51.100;6.886;2023-01-15T08:26:50;99690.00;;;10.70
60966;BMP180;46834;51.100;6.886;2023-01-15T08:29:16;99697.00;;;10.70
60966;BMP180;46834;51.100;6.886;2023-01-15T08:31:42;99710.00;;;10.70
60966;BMP180;46834;51.100;6.886;2023-01-15T08:34:08;99690.00;;;10.70
60966;BMP180;46834;51.100;6.886;2023-01-15T08:36:33;99691.00;;;10.70
60966;BMP180;46834;51.100;6.886;2023-01-15T08:38:59;99699.00;;;10.70
60966;BMP180;46834;51.100;6.886;2023-01-15T08:41:25;99718.00;;;10.70
60966;BMP180;46834;51.100;6.886;2023-01-15T08:43:50;99716.00;;;10.70
60966;BMP180;46834;51.100;6.886;2023-01-15T08:46:17;99725.00;;;10.70
60966;BMP180;46834;51.100;6.886;2023-01-15T08:48:43;99721.00;;;10.70
60966;BMP180;46834;51.100;6.886;2023-01-15T08:51:10;99714.00;;;10.70
60966;BMP180;46834;51.100;6.886;2023-01-15T08:53:37;99716.00;;;10.70
60966;BMP180;46834;51.100;6.886;2023-01-15T08:56:03;99728.00;;;10.70
60966;BMP180;46834;51.100;6.886;2023-01-15T08:58:32;99723.00;;;10.70
60966;BMP180;46834;51.100;6.886;2023-01-15T09:01:09;99717.00;;;10.60
60966;BMP180;46834;51.100;6.886;2023-01-15T09:03:36;99734.00;;;10.70
60966;BMP180;46834;51.100;6.886;2023-01-15T09:06:03;99722.00;;;10.70
60966;BMP180;46834;51.100;6.886;2023-01-15T09:08:30;99736.00;;;10.70
60966;BMP180;46834;51.100;6.886;2023-01-15T09:11:01;99740.00;;;10.60
60966;BMP180;46834;51.100;6.886;2023-01-15T09:13:29;99729.00;;;10.60
60966;BMP180;46834;51.100;6.886;2023-01-15T09:16:02;99731.00;;;10.60
60966;BMP180;46834;51.100;6.886;2023-01-15T09:18:29;99737.00;;;10.60
60966;BMP180;46834;51.100;6.886;2023-01-15T09:20:55;99734.00;;;10.60
60966;BMP180;46834;51.100;6.886;2023-01-15T09:23:21;99730.00;;;10.60
60966;BMP180;46834;51.100;6.886;2023-01-15T09:26:03;99712.00;;;10.50
60966;BMP180;46834;51.100;6.886;2023-01-15T09:28:34;99725.00;;;10.50
60966;BMP180;46834;51.100;6.886;2023-01-15T09:31:00;99719.00;;;10.50
60966;BMP180;46834;51.100;6.886;2023-01-15T09:33:26;99711.00;;;10.50
60966;BMP180;46834;51.100;6.886;2023-01-15T09:35:52;99726.00;;;10.50
60966;BMP180;46834;51.100;6.886;2023-01-15T09:38:20;99735.00;;;10.50
60966;BMP180;46834;51.100;6.886;2023-01-15T09:41:01;99722.00;;;10.40
60966;BMP180;46834;51.100;6.886;2023-01-15T09:44:24;99729.00;;;10.40
60966;BMP180;46834;51.100;6.886;2023-01-15T09:47:03;99732.00;;;10.40
60966;BMP180;46834;51.100;6.886;2023-01-15T09:49:52;99730.00;;;10.40
60966;BMP180;46834;51.100;6.886;2023-01-15T09:55:35;99718.00;;;10.40
60966;BMP180;46834;51.100;6.886;2023-01-15T09:58:10;99721.00;;;10.50
60966;BMP180;46834;51.100;6.886;2023-01-15T10:00:42;99716.00;;;10.50
60966;BMP180;46834;51.100;6.886;2023-01-15T10:08:36;99708.00;;;10.50
60966;BMP180;46834;51.100;6.886;2023-01-15T10:13:47;99707.00;;;10.60
60966;BMP180;46834;51.100;6.886;2023-01-15T10:16:25;99713.00;;;10.60
60966;BMP180;46834;51.100;6.886;2023-01-15T10:18:52;99706.00;;;10.60
60966;BMP180;46834;51.100;6.886;2023-01-15T10:21:45;99725.00;;;10.60
60966;BMP180;46834;51.100;6.886;2023-01-15T10:24:46;99728.00;;;10.60
60966;BMP180;46834;51.100;6.886;2023-01-15T10:27:20;99730.00;;;10.70
60966;BMP180;46834;51.100;6.886;2023-01-15T10:29:59;99734.00;;;10.70
60966;BMP180;46834;51.100;6.886;2023-01-15T10:32:44;99744.00;;;10.70
60966;BMP180;46834;51.100;6.886;2023-01-15T10:38:27;99735.00;;;10.80
60966;BMP180;46834;51.100;6.886;2023-01-15T10:44:04;99750.00;;;10.80
60966;BMP180;46834;51.100;6.886;2023-01-15T10:46:36;99772.00;;;10.90
60966;BMP180;46834;51.100;6.886;2023-01-15T10:49:13;99751.00;;;10.90
60966;BMP180;46834;51.100;6.886;2023-01-15T10:51:55;99767.00;;;10.90
60966;BMP180;46834;51.100;6.886;2023-01-15T10:54:23;99752.00;;;10.90
60966;BMP180;46834;51.100;6.886;2023-01-15T10:57:13;99748.00;;;10.90
60966;BMP180;46834;51.100;6.886;2023-01-15T11:02:37;99731.00;;;10.90
60966;BMP180;46834;51.100;6.886;2023-01-15T11:05:05;99737.00;;;11.00
60966;BMP180;46834;51.100;6.886;2023-01-15T11:07:40;99747.00;;;11.00
60966;BMP180;46834;51.100;6.886;2023-01-15T11:10:12;99760.00;;;11.00
60966;BMP180;46834;51.100;6.886;2023-01-15T11:13:01;99753.00;;;10.90
60966;BMP180;46834;51.100;6.886;2023-01-15T11:15:48;99741.00;;;11.00
60966;BMP180;46834;51.100;6.886;2023-01-15T11:18:40;99772.00;;;11.00
60966;BMP180;46834;51.100;6.886;2023-01-15T11:21:25;99762.00;;;11.00
60966;BMP180;46834;51.100;6.886;2023-01-15T11:23:54;99762.00;;;11.10
60966;BMP180;46834;51.100;6.886;2023-01-15T11:26:30;99760.00;;;11.10
60966;BMP180;46834;51.100;6.886;2023-01-15T11:29:00;99760.00;;;11.10
60966;BMP180;46834;51.100;6.886;2023-01-15T11:31:38;99762.00;;;11.20
60966;BMP180;46834;51.100;6.886;2023-01-15T11:34:14;99761.00;;;11.20
60966;BMP180;46834;51.100;6.886;2023-01-15T11:36:41;99764.00;;;11.20
60966;BMP180;46834;51.100;6.886;2023-01-15T11:39:25;99763.00;;;11.20
60966;BMP180;46834;51.100;6.886;2023-01-15T11:42:05;99734.00;;;11.20
60966;BMP180;46834;51.100;6.886;2023-01-15T11:44:56;99767.00;;;11.30
60966;BMP180;46834;51.100;6.886;2023-01-15T11:47:52;99734.00;;;11.30
60966;BMP180;46834;51.100;6.886;2023-01-15T11:51:20;99758.00;;;11.20
60966;BMP180;46834;51.100;6.886;2023-01-15T11:53:54;99759.00;;;11.30
60966;BMP180;46834;51.100;6.886;2023-01-15T11:56:26;99759.00;;;11.30
60966;BMP180;46834;51.100;6.886;2023-01-15T11:58:56;99751.00;;;11.30
60966;BMP180;46834;51.100;6.886;2023-01-15T12:01:31;99738.00;;;11.30
60966;BMP180;46834;51.100;6.886;2023-01-15T12:04:01;99746.00;;;11.40
60966;BMP180;46834;51.100;6.886;2023-01-15T12:06:30;99728.00;;;11.40
60966;BMP180;46834;51.100;6.886;2023-01-15T12:09:15;99730.00;;;11.30
60966;BMP180;46834;51.100;6.886;2023-01-15T12:17:58;99725.00;;;11.30
60966;BMP180;46834;51.100;6.886;2023-01-15T12:24:09;99741.00;;;11.30
60966;BMP180;46834;51.100;6.886;2023-01-15T12:29:47;99741.00;;;11.40
60966;BMP180;46834;51.100;6.886;2023-01-15T12:32:23;99730.00;;;11.40
60966;BMP180;46834;51.100;6.886;2023-01-15T12:35:28;99736.00;;;11.40
60966;BMP180;46834;51.100;6.886;2023-01-15T12:41:19;99732.00;;;11.50
60966;BMP180;46834;51.100;6.886;2023-01-15T12:43:55;99720.00;;;11.50
60966;BMP180;46834;51.100;6.886;2023-01-15T12:46:44;99732.00;;;11.50
60966;BMP180;46834;51.100;6.886;2023-01-15T12:49:33;99715.00;;;11.50
60966;BMP180;46834;51.100;6.886;2023-01-15T12:52:10;99719.00;;;11.50
60966;BMP180;46834;51.100;6.886;2023-01-15T12:54:48;99719.00;;;11.50
60966;BMP180;46834;51.100;6.886;2023-01-15T12:57:28;99727.00;;;11.50
60966;BMP180;46834;51.100;6.886;2023-01-15T13:00:12;99735.00;;;11.50
60966;BMP180;46834;51.100;6.886;2023-01-15T13:08:12;99720.00;;;11.60
60966;BMP180;46834;51.100;6.886;2023-01-15T13:10:41;99727.00;;;11.70
60966;BMP180;46834;51.100;6.886;2023-01-15T13:13:29;99722.00;;;11.60
60966;BMP180;46834;51.100;6.886;2023-01-15T13:16:26;99731.00;;;11.60
60966;BMP180;46834;51.100;6.886;2023-01-15T13:21:53;99704.00;;;11.70
60966;BMP180;46834;51.100;6.886;2023-01-15T13:24:42;99719.00;;;11.70
60966;BMP180;46834;51.100;6.886;2023-01-15T13:27:31;99737.00;;;11.70
60966;BMP180;46834;51.100;6.886;2023-01-15T13:35:49;99732.00;;;11.80
60966;BMP180;46834;51.100;6.886;2023-01-15T13:38:22;99730.00;;;11.80
60966;BMP180;46834;51.100;6.886;2023-01-15T13:40:52;99753.00;;;11.80
60966;BMP180;46834;51.100;6.886;2023-01-15T13:43:36;99741.00;;;11.80
60966;BMP180;46834;51.100;6.886;2023-01-15T13:46:07;99746.00;;;11.90
60966;BMP180;46834;51.100;6.886;2023-01-15T13:48:45;99732.00;;;11.80
60966;BMP180;46834;51.100;6.886;2023-01-15T13:51:34;99754.00;;;11.80
60966;BMP180;46834;51.100;6.886;2023-01-15T13:54:15;99757.00;;;11.80
60966;BMP180;46834;51.100;6.886;2023-01-15T13:56:42;99759.00;;;11.90
60966;BMP180;46834;51.100;6.886;2023-01-15T13:59:41;99760.00;;;11.80
60966;BMP180;46834;51.100;6.886;2023-01-15T14:02:29;99772.00;;;11.80
60966;BMP180;46834;51.100;6.886;2023-01-15T14:04:56;99762.00;;;11.90
60966;BMP180;46834;51.100;6.886;2023-01-15T14:07:33;99769.00;;;11.80
60966;BMP180;46834;51.100;6.886;2023-01-15T14:13:03;99747.00;;;11.80
60966;BMP180;46834;51.100;6.886;2023-01-15T14:22:26;99785.00;;;11.70
60966;BMP180;46834;51.100;6.886;2023-01-15T14:25:29;99776.00;;;11.70
60966;BMP180;46834;51.100;6.886;2023-01-15T14:31:13;99784.00;;;11.70
60966;BMP180;46834;51.100;6.886;2023-01-15T14:34:11;99794.00;;;11.70
60966;BMP180;46834;51.100;6.886;2023-01-15T14:37:28;99795.00;;;11.70
60966;BMP180;46834;51.100;6.886;2023-01-15T14:39:53;99794.00;;;11.70
60966;BMP180;46834;51.100;6.886;2023-01-15T14:47:48;99807.00;;;11.70
60966;BMP180;46834;51.100;6.886;2023-01-15T14:50:37;99798.00;;;11.70
60966;BMP180;46834;51.100;6.886;2023-01-15T14:53:30;99808.00;;;11.70
60966;BMP180;46834;51.100;6.886;2023-01-15T14:56:17;99826.00;;;11.70
60966;BMP180;46834;51.100;6.886;2023-01-15T15:01:43;99819.00;;;11.70
60966;BMP180;46834;51.100;6.886;2023-01-15T15:04:43;99818.00;;;11.70
60966;BMP180;46834;51.100;6.886;2023-01-15T15:07:19;99824.00;;;11.70
60966;BMP180;46834;51.100;6.886;2023-01-15T15:12:53;99826.00;;;11.70
60966;BMP180;46834;51.100;6.886;2023-01-15T15:18:07;99839.00;;;11.70
60966;BMP180;46834;51.100;6.886;2023-01-15T15:21:16;99831.00;;;11.70
60966;BMP180;46834;51.100;6.886;2023-01-15T15:24:10;99831.00;;;11.70
60966;BMP180;46834;51.100;6.886;2023-01-15T15:26:37;99827.00;;;11.70
60966;BMP180;46834;51.100;6.886;2023-01-15T15:29:14;99829.00;;;11.70
60966;BMP180;46834;51.100;6.886;2023-01-15T15:36:47;99833.00;;;11.70
60966;BMP180;46834;51.100;6.886;2023-01-15T15:39:23;99829.00;;;11.60
60966;BMP180;46834;51.100;6.886;2023-01-15T15:41:54;99838.00;;;11.60
60966;BMP180;46834;51.100;6.886;2023-01-15T15:44:53;99842.00;;;11.60
60966;BMP180;46834;51.100;6.886;2023-01-15T15:47:41;99829.00;;;11.60
60966;BMP180;46834;51.100;6.886;2023-01-15T15:50:33;99834.00;;;11.50
60966;BMP180;46834;51.100;6.886;2023-01-15T15:53:00;99822.00;;;11.60
60966;BMP180;46834;51.100;6.886;2023-01-15T15:55:41;99831.00;;;11.50
60966;BMP180;46834;51.100;6.886;2023-01-15T15:58:21;99823.00;;;11.50
60966;BMP180;46834;51.100;6.886;2023-01-15T16:00:50;99828.00;;;11.50
60966;BMP180;46834;51.100;6.886;2023-01-15T16:03:24;99825.00;;;11.50
60966;BMP180;46834;51.100;6.886;2023-01-15T16:06:02;99829.00;;;11.50
60966;BMP180;46834;51.100;6.886;2023-01-15T16:08:30;99830.00;;;11.50
60966;BMP180;46834;51.100;6.886;2023-01-15T16:11:01;99838.00;;;11.50
60966;BMP180;46834;51.100;6.886;2023-01-15T16:13:35;99836.00;;;11.40
60966;BMP180;46834;51.100;6.886;2023-01-15T16:16:04;99846.00;;;11.50
60966;BMP180;46834;51.100;6.886;2023-01-15T16:18:37;99849.00;;;11.40
60966;BMP180;46834;51.100;6.886;2023-01-15T16:21:07;99844.00;;;11.40